createdAt,value
2019-03-06T00:00:53.015Z,100402.65
2019-03-06T00:03:26.676Z,100398.73
2019-03-06T00:06:00.084Z,100392.25
2019-03-06T00:08:33.729Z,100393.98
2019-03-06T00:11:07.145Z,100392.21
2019-03-06T00:13:40.547Z,100395.23
2019-03-06T00:16:13.946Z,100386.55
2019-03-06T00:18:47.352Z,100383.54
2019-03-06T00:21:20.714Z,100387.05
2019-03-06T00:23:54.047Z,100388.34
2019-03-06T00:26:27.389Z,100387.94
2019-03-06T00:29:00.790Z,100387.50
2019-03-06T00:31:34.171Z,100388.38
2019-03-06T00:34:07.568Z,100387.94
2019-03-06T00:36:41.052Z,100384.45
2019-03-06T00:39:14.367Z,100386.16
2019-03-06T00:41:47.882Z,100387.02
2019-03-06T00:44:21.332Z,100377.48
2019-03-06T00:46:54.692Z,100383.59
2019-03-06T00:49:28.091Z,100379.23
2019-03-06T00:52:01.732Z,100378.77
2019-03-06T00:54:35.133Z,100375.28
2019-03-06T00:57:08.546Z,100368.78
2019-03-06T00:59:41.863Z,100365.70
2019-03-06T01:02:15.211Z,100364.81
2019-03-06T01:04:48.521Z,100374.39
2019-03-06T01:07:21.991Z,100368.77
2019-03-06T01:09:55.319Z,100357.02
2019-03-06T01:12:28.664Z,100354.00
2019-03-06T01:15:02.051Z,100345.30
2019-03-06T01:17:35.458Z,100340.06
2019-03-06T01:20:11.471Z,100332.23
2019-03-06T01:22:45.055Z,100327.50
2019-03-06T01:25:20.471Z,100318.81
2019-03-06T01:27:53.883Z,100321.87
2019-03-06T01:30:27.980Z,100318.41
2019-03-06T01:33:08.595Z,100313.20
2019-03-06T01:35:43.560Z,100309.77
2019-03-06T01:38:18.556Z,100305.02
2019-03-06T01:40:53.534Z,100305.43
2019-03-06T01:43:28.521Z,100301.53
2019-03-06T01:46:02.217Z,100295.39
2019-03-06T01:48:35.740Z,100297.16
2019-03-06T01:51:09.172Z,100292.80
2019-03-06T01:53:42.597Z,100303.66
2019-03-06T01:56:16.059Z,100302.38
2019-03-06T01:58:49.415Z,100295.45
2019-03-06T02:01:22.848Z,100290.20
2019-03-06T02:03:56.211Z,100286.27
2019-03-06T02:06:29.540Z,100278.49
2019-03-06T02:09:03.219Z,100273.28
2019-03-06T02:11:36.611Z,100282.41
2019-03-06T02:14:10.057Z,100280.17
2019-03-06T02:16:43.393Z,100277.55
2019-03-06T02:19:16.896Z,100281.88
2019-03-06T02:21:50.307Z,100267.08
2019-03-06T02:24:24.012Z,100260.07
2019-03-06T02:26:57.330Z,100259.28
2019-03-06T02:29:30.676Z,100266.28
2019-03-06T02:32:04.142Z,100264.59
2019-03-06T02:34:37.695Z,100251.48
2019-03-06T02:37:11.111Z,100233.25
2019-03-06T02:39:44.465Z,100246.36
2019-03-06T02:42:17.874Z,100246.83
2019-03-06T02:44:51.592Z,100238.09
2019-03-06T02:47:24.967Z,100240.57
2019-03-06T02:49:58.361Z,100243.63
2019-03-06T02:52:31.692Z,100235.45
2019-03-06T02:55:06.987Z,100234.97
2019-03-06T02:57:42.001Z,100233.27
2019-03-06T03:00:26.827Z,100237.64
2019-03-06T03:03:13.832Z,100235.95
2019-03-06T03:05:48.874Z,100230.74
2019-03-06T03:08:22.197Z,100228.58
2019-03-06T03:10:55.534Z,100224.26
2019-03-06T03:13:28.865Z,100209.48
2019-03-06T03:16:02.223Z,100211.58
2019-03-06T03:18:35.532Z,100208.62
2019-03-06T03:21:08.970Z,100213.45
2019-03-06T03:23:42.306Z,100207.41
2019-03-06T03:26:15.736Z,100198.79
2019-03-06T03:28:49.069Z,100203.60
2019-03-06T03:31:22.502Z,100207.55
2019-03-06T03:33:55.896Z,100206.66
2019-03-06T03:36:29.234Z,100206.70
2019-03-06T03:39:02.552Z,100201.08
2019-03-06T03:41:35.910Z,100192.84
2019-03-06T03:44:09.297Z,100191.12
2019-03-06T03:46:42.711Z,100187.66
2019-03-06T03:49:16.071Z,100184.21
2019-03-06T03:51:49.397Z,100183.34
2019-03-06T03:54:22.769Z,100182.89
2019-03-06T03:56:56.123Z,100169.48
2019-03-06T03:59:29.619Z,100162.95
2019-03-06T04:02:03.134Z,100165.55
2019-03-06T04:04:36.453Z,100162.09
2019-03-06T04:07:09.901Z,100155.58
2019-03-06T04:09:43.263Z,100160.36
2019-03-06T04:12:16.615Z,100148.23
2019-03-06T04:14:49.960Z,100137.38
2019-03-06T04:17:23.301Z,100128.71
2019-03-06T04:19:56.990Z,100130.46
2019-03-06T04:22:30.341Z,100144.31
2019-03-06T04:25:04.833Z,100152.95
2019-03-06T04:27:38.184Z,100163.33
2019-03-06T04:30:19.281Z,100162.47
2019-03-06T04:32:52.644Z,100156.00
2019-03-06T04:35:26.154Z,100158.58
2019-03-06T04:37:59.518Z,100153.81
2019-03-06T04:40:32.922Z,100161.61
2019-03-06T04:43:06.398Z,100158.13
2019-03-06T04:45:39.839Z,100153.34
2019-03-06T04:48:13.186Z,100155.52
2019-03-06T04:50:46.532Z,100145.97
2019-03-06T04:53:19.953Z,100153.70
2019-03-06T04:55:53.329Z,100138.95
2019-03-06T04:58:26.968Z,100137.59
2019-03-06T05:01:00.332Z,100125.00
2019-03-06T05:03:33.635Z,100128.81
2019-03-06T05:06:06.963Z,100125.00
2019-03-06T05:08:40.360Z,100121.50
2019-03-06T05:11:13.726Z,100116.72
2019-03-06T05:13:47.051Z,100112.00
2019-03-06T05:16:22.079Z,100126.77
2019-03-06T05:18:56.876Z,100125.91
2019-03-06T05:21:30.199Z,100119.44
2019-03-06T05:24:03.619Z,100122.00
2019-03-06T05:26:37.003Z,100111.63
2019-03-06T05:29:10.369Z,100111.13
2019-03-06T05:32:03.231Z,100120.19
2019-03-06T05:34:36.774Z,100122.39
2019-03-06T05:37:19.305Z,100118.02
2019-03-06T05:39:52.678Z,100109.33
2019-03-06T05:42:26.091Z,100104.53
2019-03-06T05:44:59.424Z,100109.30
2019-03-06T05:47:32.752Z,100109.75
2019-03-06T05:50:07.637Z,100092.02
2019-03-06T05:52:40.991Z,100090.30
2019-03-06T05:55:14.409Z,100085.11
2019-03-06T05:57:47.736Z,100090.72
2019-03-06T06:00:25.465Z,100095.94
2019-03-06T06:02:58.789Z,100089.48
2019-03-06T06:05:32.151Z,100086.41
2019-03-06T06:08:05.547Z,100083.36
2019-03-06T06:10:39.135Z,100075.20
2019-03-06T06:13:12.474Z,100078.30
2019-03-06T06:15:45.912Z,100062.81
2019-03-06T06:18:19.225Z,100053.31
2019-03-06T06:20:54.223Z,100054.63
2019-03-06T06:23:38.424Z,100052.48
2019-03-06T06:26:11.930Z,100045.98
2019-03-06T06:28:45.333Z,100037.72
2019-03-06T06:31:18.679Z,100025.13
2019-03-06T06:33:52.083Z,100019.47
2019-03-06T06:36:25.439Z,100021.06
2019-03-06T06:38:58.771Z,100013.97
2019-03-06T06:41:32.193Z,100002.50
2019-03-06T06:44:05.644Z,99999.76
2019-03-06T06:46:39.131Z,100008.34
2019-03-06T06:49:12.476Z,100007.41
2019-03-06T06:52:19.506Z,100006.94
2019-03-06T06:55:05.072Z,100001.22
2019-03-06T06:58:15.286Z,99998.91
2019-03-06T07:00:59.085Z,99993.08
2019-03-06T07:03:57.982Z,99986.40
2019-03-06T07:06:33.024Z,99991.41
2019-03-06T07:09:17.841Z,99985.14
2019-03-06T07:11:52.786Z,99977.64
2019-03-06T07:14:27.865Z,99975.70
2019-03-06T07:17:02.814Z,99966.88
2019-03-06T07:19:37.864Z,99963.14
2019-03-06T07:22:12.808Z,99958.56
2019-03-06T07:24:56.535Z,99957.56
2019-03-06T07:27:31.587Z,99954.38
2019-03-06T07:30:24.367Z,99950.75
2019-03-06T07:33:08.631Z,99948.67
2019-03-06T07:35:59.855Z,99948.85
2019-03-06T07:38:33.626Z,99954.91
2019-03-06T07:41:08.666Z,99952.83
2019-03-06T07:43:43.602Z,99962.48
2019-03-06T07:46:18.727Z,99963.95
2019-03-06T07:48:53.785Z,99955.28
2019-03-06T07:51:32.023Z,99953.97
2019-03-06T07:54:10.390Z,99945.99
2019-03-06T07:56:52.654Z,99946.69
2019-03-06T07:59:25.987Z,99942.23
2019-03-06T08:02:11.581Z,99941.93
2019-03-06T08:04:52.753Z,99938.92
2019-03-06T08:07:26.107Z,99932.59
2019-03-06T08:09:59.453Z,99929.73
2019-03-06T08:12:37.502Z,99920.14
2019-03-06T08:15:12.908Z,99920.58
2019-03-06T08:18:03.970Z,99917.41
2019-03-06T08:20:47.777Z,99914.72
2019-03-06T08:23:38.829Z,99914.67
2019-03-06T08:26:12.422Z,99914.23
2019-03-06T08:28:45.732Z,99913.19
2019-03-06T08:31:29.538Z,99915.92
2019-03-06T08:34:02.862Z,99912.75
2019-03-06T08:36:36.242Z,99913.67
2019-03-06T08:39:16.027Z,99900.89
2019-03-06T08:41:49.456Z,99902.72
2019-03-06T08:44:22.852Z,99895.09
2019-03-06T08:46:57.897Z,99883.01
2019-03-06T08:49:41.694Z,99884.77
2019-03-06T08:52:16.759Z,99878.42
2019-03-06T08:54:54.661Z,99859.13
2019-03-06T08:57:29.784Z,99845.91
2019-03-06T09:00:22.868Z,99874.62
2019-03-06T09:03:18.430Z,99864.70
2019-03-06T09:05:59.447Z,99850.62
2019-03-06T09:08:36.971Z,99850.20
2019-03-06T09:11:11.996Z,99845.52
2019-03-06T09:13:49.783Z,99849.80
2019-03-06T09:16:27.600Z,99836.70
2019-03-06T09:19:17.719Z,99841.75
2019-03-06T09:21:52.727Z,99828.83
2019-03-06T09:24:27.784Z,99824.98
2019-03-06T09:27:14.826Z,99809.58
2019-03-06T09:29:53.061Z,99799.72
2019-03-06T09:32:33.587Z,99797.86
2019-03-06T09:35:21.876Z,99772.16
2019-03-06T09:38:10.622Z,99763.16
2019-03-06T09:40:55.515Z,99777.20
2019-03-06T09:43:36.510Z,99776.56
2019-03-06T09:46:11.552Z,99768.61
2019-03-06T09:49:10.873Z,99760.23
2019-03-06T09:51:53.011Z,99762.14
2019-03-06T09:54:28.081Z,99762.93
2019-03-06T09:57:18.315Z,99760.61
2019-03-06T10:00:02.467Z,99767.20
2019-03-06T10:02:40.185Z,99756.11
2019-03-06T10:05:15.351Z,99748.41
2019-03-06T10:07:50.309Z,99748.30
2019-03-06T10:10:31.084Z,99738.98
2019-03-06T10:13:21.898Z,99755.83
2019-03-06T10:16:08.865Z,99754.55
2019-03-06T10:18:46.648Z,99741.96
2019-03-06T10:21:19.999Z,99743.02
2019-03-06T10:23:53.434Z,99736.97
2019-03-06T10:26:28.843Z,99733.35
2019-03-06T10:29:02.074Z,99731.77
2019-03-06T10:31:35.433Z,99731.66
2019-03-06T10:34:08.847Z,99721.36
2019-03-06T10:36:42.226Z,99723.62
2019-03-06T10:39:16.296Z,99717.73
2019-03-06T10:41:49.648Z,99712.58
2019-03-06T10:44:29.593Z,99718.67
2019-03-06T10:46:58.173Z,99711.80
2019-03-06T10:49:31.777Z,99707.98
2019-03-06T10:52:05.475Z,99701.66
2019-03-06T10:54:44.682Z,99701.89
2019-03-06T10:57:14.349Z,99693.17
2019-03-06T10:59:48.028Z,99690.81
2019-03-06T11:02:21.422Z,99680.53
2019-03-06T11:04:56.400Z,99668.48
2019-03-06T11:07:29.878Z,99676.92
2019-03-06T11:10:04.119Z,99678.15
2019-03-06T11:12:37.552Z,99665.11
2019-03-06T11:15:18.733Z,99668.99
2019-03-06T11:17:52.496Z,99653.11
2019-03-06T11:20:31.803Z,99647.55
2019-03-06T11:23:07.774Z,99645.80
2019-03-06T11:25:41.483Z,99640.52
2019-03-06T11:28:15.193Z,99636.13
2019-03-06T11:30:56.660Z,99622.09
2019-03-06T11:33:31.053Z,99622.09
2019-03-06T11:36:04.715Z,99600.94
2019-03-06T11:38:38.170Z,99601.72
2019-03-06T11:41:11.876Z,99584.80
2019-03-06T11:43:48.003Z,99524.64
2019-03-06T11:46:21.414Z,99563.11
2019-03-06T11:48:55.144Z,99560.41
2019-03-06T11:51:28.527Z,99564.47
2019-03-06T11:54:01.947Z,99556.99
2019-03-06T11:56:35.573Z,99562.65
2019-03-06T11:59:09.077Z,99558.14
2019-03-06T12:01:47.960Z,99562.19
2019-03-06T12:04:18.623Z,99560.55
2019-03-06T12:06:52.018Z,99559.39
2019-03-06T12:09:26.786Z,99557.28
2019-03-06T12:12:00.503Z,99556.03
2019-03-06T12:14:33.863Z,99545.39
2019-03-06T12:17:07.328Z,99545.34
2019-03-06T12:19:41.064Z,99540.92
2019-03-06T12:22:14.472Z,99532.95
2019-03-06T12:24:47.894Z,99529.63
2019-03-06T12:27:21.306Z,99524.41
2019-03-06T12:29:54.647Z,99527.92
2019-03-06T12:32:28.102Z,99513.70
2019-03-06T12:35:01.465Z,99511.59
2019-03-06T12:37:34.854Z,99505.02
2019-03-06T12:40:14.922Z,99497.64
2019-03-06T12:42:48.547Z,99499.73
2019-03-06T12:45:22.095Z,99483.94
2019-03-06T12:48:01.325Z,99485.27
2019-03-06T12:50:39.326Z,99468.66
2019-03-06T12:53:13.007Z,99459.03
2019-03-06T12:55:46.621Z,99454.11
2019-03-06T12:58:19.957Z,99441.69
2019-03-06T13:00:53.329Z,99432.65
2019-03-06T13:03:26.704Z,99436.73
2019-03-06T13:06:00.204Z,99419.11
2019-03-06T13:08:33.613Z,99415.12
2019-03-06T13:11:07.042Z,99408.87
2019-03-06T13:13:40.443Z,99396.17
2019-03-06T13:16:13.802Z,99402.96
2019-03-06T13:18:47.218Z,99396.06
2019-03-06T13:21:21.065Z,99375.81
2019-03-06T13:23:54.587Z,99385.41
2019-03-06T13:26:28.083Z,99373.34
2019-03-06T13:29:01.497Z,99379.87
2019-03-06T13:31:34.971Z,99365.81
2019-03-06T13:34:12.504Z,99355.92
2019-03-06T13:36:45.832Z,99362.83
2019-03-06T13:39:19.261Z,99362.54
2019-03-06T13:41:52.600Z,99358.42
2019-03-06T13:44:25.961Z,99365.61
2019-03-06T13:46:59.369Z,99360.37
2019-03-06T13:49:32.809Z,99358.05
2019-03-06T13:52:06.206Z,99361.41
2019-03-06T13:54:39.611Z,99361.76
2019-03-06T13:57:13.188Z,99364.21
2019-03-06T13:59:46.615Z,99351.61
2019-03-06T14:02:20.211Z,99339.98
2019-03-06T14:04:53.645Z,99341.12
2019-03-06T14:07:26.970Z,99339.30
2019-03-06T14:10:00.371Z,99335.98
2019-03-06T14:12:33.776Z,99336.38
2019-03-06T14:15:10.032Z,99331.47
2019-03-06T14:17:43.417Z,99333.72
2019-03-06T14:20:22.411Z,99330.50
2019-03-06T14:22:56.333Z,99325.95
2019-03-06T14:25:29.804Z,99322.37
2019-03-06T14:28:03.278Z,99325.36
2019-03-06T14:30:38.367Z,99327.02
2019-03-06T14:33:11.697Z,99317.76
2019-03-06T14:35:45.116Z,99319.72
2019-03-06T14:38:18.619Z,99317.19
2019-03-06T14:40:52.805Z,99316.83
2019-03-06T14:43:26.221Z,99318.89
2019-03-06T14:45:59.571Z,99311.30
2019-03-06T14:48:33.053Z,99316.44
2019-03-06T14:51:06.478Z,99313.38
2019-03-06T14:53:39.950Z,99305.02
2019-03-06T14:56:13.386Z,99311.27
2019-03-06T14:58:47.244Z,99289.60
2019-03-06T15:01:20.792Z,99292.87
2019-03-06T15:03:54.123Z,99290.73
2019-03-06T15:06:27.463Z,99290.63
2019-03-06T15:09:00.818Z,99290.27
2019-03-06T15:11:34.156Z,99288.11
2019-03-06T15:14:07.471Z,99286.75
2019-03-06T15:16:40.951Z,99280.60
2019-03-06T15:19:14.355Z,99278.05
2019-03-06T15:21:47.778Z,99273.98
2019-03-06T15:24:21.102Z,99275.11
2019-03-06T15:26:54.620Z,99276.80
2019-03-06T15:29:27.998Z,99271.44
2019-03-06T15:32:01.646Z,99271.11
2019-03-06T15:34:35.025Z,99267.04
2019-03-06T15:37:08.434Z,99269.06
2019-03-06T15:39:48.252Z,99266.02
2019-03-06T15:42:16.900Z,99262.24
2019-03-06T15:44:50.323Z,99262.41
2019-03-06T15:47:33.267Z,99264.39
2019-03-06T15:49:59.796Z,99250.97
2019-03-06T15:52:33.415Z,99248.19
2019-03-06T15:55:10.090Z,99251.36
2019-03-06T15:57:43.546Z,99245.08
2019-03-06T16:00:21.441Z,99247.03
2019-03-06T16:02:54.794Z,99245.02
2019-03-06T16:05:28.212Z,99240.55
2019-03-06T16:08:02.007Z,99239.62
2019-03-06T16:10:35.421Z,99231.48
2019-03-06T16:13:09.045Z,99223.15
2019-03-06T16:15:42.474Z,99222.84
2019-03-06T16:18:15.934Z,99218.73
2019-03-06T16:20:49.300Z,99225.14
2019-03-06T16:23:22.751Z,99225.14
2019-03-06T16:25:56.080Z,99225.86
2019-03-06T16:28:29.439Z,99225.95
2019-03-06T16:31:02.815Z,99230.87
2019-03-06T16:33:36.260Z,99230.87
2019-03-06T16:36:09.701Z,99242.02
2019-03-06T16:38:43.014Z,99244.25
2019-03-06T16:41:16.433Z,99244.38
2019-03-06T16:43:49.898Z,99250.35
2019-03-06T16:46:23.354Z,99239.69
2019-03-06T16:48:56.795Z,99239.69
2019-03-06T16:51:30.221Z,99243.83
2019-03-06T16:54:03.711Z,99243.18
2019-03-06T16:56:37.120Z,99250.09
2019-03-06T16:59:10.523Z,99252.30
2019-03-06T17:01:43.881Z,99246.39
2019-03-06T17:04:17.352Z,99249.58
2019-03-06T17:06:50.979Z,99239.57
2019-03-06T17:09:24.390Z,99242.44
2019-03-06T17:11:57.900Z,99242.91
2019-03-06T17:14:31.308Z,99244.95
2019-03-06T17:17:04.717Z,99244.02
2019-03-06T17:19:38.083Z,99235.33
2019-03-06T17:22:11.520Z,99242.15
2019-03-06T17:24:45.058Z,99233.77
2019-03-06T17:27:18.478Z,99242.64
2019-03-06T17:29:51.883Z,99235.86
2019-03-06T17:32:25.310Z,99239.06
2019-03-06T17:34:58.803Z,99239.94
2019-03-06T17:37:32.259Z,99235.30
2019-03-06T17:40:06.392Z,99231.80
2019-03-06T17:42:39.769Z,99231.72
2019-03-06T17:45:13.219Z,99231.58
2019-03-06T17:47:46.734Z,99232.48
2019-03-06T17:50:20.511Z,99234.30
2019-03-06T17:52:54.209Z,99225.36
2019-03-06T17:55:27.872Z,99224.64
2019-03-06T17:58:01.308Z,99211.08
2019-03-06T18:00:45.850Z,99204.44
2019-03-06T18:03:20.835Z,99196.36
2019-03-06T18:05:54.271Z,99189.27
2019-03-06T18:08:27.917Z,99182.20
2019-03-06T18:11:01.622Z,99192.13
2019-03-06T18:13:35.118Z,99191.24
2019-03-06T18:16:08.540Z,99186.89
2019-03-06T18:18:41.971Z,99183.23
2019-03-06T18:21:15.682Z,99172.21
2019-03-06T18:23:49.147Z,99164.61
2019-03-06T18:26:22.483Z,99174.06
2019-03-06T18:28:55.930Z,99171.85
2019-03-06T18:31:29.685Z,99157.57
2019-03-06T18:34:03.124Z,99149.59
2019-03-06T18:36:36.552Z,99142.77
2019-03-06T18:39:11.663Z,99131.24
2019-03-06T18:41:45.128Z,99143.62
2019-03-06T18:44:18.725Z,99136.56
2019-03-06T18:46:52.148Z,99130.00
2019-03-06T18:49:25.685Z,99124.82
2019-03-06T18:51:59.080Z,99123.18
2019-03-06T18:54:32.446Z,99109.70
2019-03-06T18:57:05.865Z,99113.73
2019-03-06T18:59:39.263Z,99115.45
2019-03-06T19:02:12.877Z,99107.39
2019-03-06T19:04:46.295Z,99101.55
2019-03-06T19:07:19.683Z,99093.84
2019-03-06T19:09:53.068Z,99084.69
2019-03-06T19:12:26.472Z,99084.69
2019-03-06T19:15:00.370Z,99066.42
2019-03-06T19:17:33.994Z,99070.22
2019-03-06T19:20:08.801Z,99076.42
2019-03-06T19:22:42.146Z,99082.97
2019-03-06T19:25:16.189Z,99082.48
2019-03-06T19:27:49.689Z,99076.89
2019-03-06T19:30:23.877Z,99066.95
2019-03-06T19:32:57.474Z,99067.03
2019-03-06T19:35:30.905Z,99061.19
2019-03-06T19:38:04.313Z,99046.98
2019-03-06T19:40:37.734Z,99046.41
2019-03-06T19:43:11.173Z,99046.69
2019-03-06T19:45:44.537Z,99048.91
2019-03-06T19:48:17.973Z,99041.69
2019-03-06T19:50:51.723Z,99041.31
2019-03-06T19:53:27.354Z,99035.32
2019-03-06T19:56:01.342Z,99046.66
2019-03-06T19:58:34.711Z,99045.41
2019-03-06T20:01:08.136Z,99048.20
2019-03-06T20:03:41.522Z,99028.28
2019-03-06T20:06:14.949Z,99011.31
2019-03-06T20:08:48.609Z,99037.41
2019-03-06T20:11:21.995Z,99028.86
2019-03-06T20:13:55.366Z,99027.80
2019-03-06T20:16:28.765Z,99034.69
2019-03-06T20:19:02.400Z,99047.72
2019-03-06T20:21:35.735Z,99024.84
2019-03-06T20:24:09.405Z,99024.17
2019-03-06T20:26:42.741Z,99023.09
2019-03-06T20:29:16.122Z,99040.44
2019-03-06T20:31:49.618Z,99039.28
2019-03-06T20:34:23.031Z,99035.94
2019-03-06T20:36:56.652Z,99011.61
2019-03-06T20:39:30.088Z,99021.59
2019-03-06T20:42:03.769Z,99013.78
2019-03-06T20:44:37.202Z,99024.07
2019-03-06T20:47:10.589Z,99026.30
2019-03-06T20:49:43.939Z,99027.78
2019-03-06T20:52:17.281Z,99005.97
2019-03-06T20:54:50.759Z,98990.01
2019-03-06T20:57:24.138Z,98983.52
2019-03-06T20:59:57.832Z,98977.06
2019-03-06T21:02:31.239Z,98967.00
2019-03-06T21:05:06.044Z,98964.14
2019-03-06T21:07:45.094Z,98953.92
2019-03-06T21:10:18.829Z,98944.02
2019-03-06T21:12:52.416Z,98947.79
2019-03-06T21:15:25.876Z,98943.92
2019-03-06T21:17:59.290Z,98947.88
2019-03-06T21:20:32.753Z,98948.51
2019-03-06T21:23:06.079Z,98952.14
2019-03-06T21:25:39.862Z,98946.80
2019-03-06T21:28:13.264Z,98952.69
2019-03-06T21:30:47.494Z,98960.12
2019-03-06T21:33:21.951Z,98962.75
2019-03-06T21:35:55.659Z,98962.44
2019-03-06T21:38:28.957Z,98953.99
2019-03-06T21:41:02.474Z,98955.84
2019-03-06T21:43:35.908Z,98956.08
2019-03-06T21:46:09.309Z,98952.22
2019-03-06T21:48:42.733Z,98953.14
2019-03-06T21:51:16.195Z,98938.18
2019-03-06T21:53:49.580Z,98934.22
2019-03-06T21:56:23.033Z,98936.73
2019-03-06T21:58:56.393Z,98941.28
2019-03-06T22:01:29.820Z,98933.31
2019-03-06T22:04:03.173Z,98942.16
2019-03-06T22:06:36.543Z,98951.47
2019-03-06T22:09:12.063Z,98974.29
2019-03-06T22:11:45.498Z,98965.60
2019-03-06T22:14:21.031Z,98956.92
2019-03-06T22:16:53.942Z,98958.42
2019-03-06T22:19:27.254Z,98965.01
2019-03-06T22:22:00.586Z,98963.45
2019-03-06T22:24:33.935Z,98957.87
2019-03-06T22:27:07.353Z,98956.75
2019-03-06T22:29:40.693Z,98946.27
2019-03-06T22:32:14.211Z,98942.09
2019-03-06T22:34:47.547Z,98929.59
2019-03-06T22:37:20.894Z,98925.86
2019-03-06T22:39:55.469Z,98911.16
2019-03-06T22:42:29.136Z,98901.34
2019-03-06T22:45:02.548Z,98897.56
2019-03-06T22:47:35.946Z,98889.13
2019-03-06T22:50:12.488Z,98903.18
2019-03-06T22:52:45.877Z,98893.96
2019-03-06T22:55:20.260Z,98903.22
2019-03-06T22:57:53.606Z,98901.31
2019-03-06T23:00:52.673Z,98899.06
2019-03-06T23:03:26.522Z,98902.78
2019-03-06T23:05:59.845Z,98901.86
2019-03-06T23:08:33.201Z,98903.98
2019-03-06T23:11:06.677Z,98902.14
2019-03-06T23:13:40.021Z,98896.13
2019-03-06T23:16:13.432Z,98898.30
2019-03-06T23:18:46.775Z,98899.40
2019-03-06T23:21:20.189Z,98889.88
2019-03-06T23:23:53.556Z,98884.56
2019-03-06T23:26:26.873Z,98877.19
2019-03-06T23:29:00.327Z,98872.37
2019-03-06T23:31:33.639Z,98874.80
2019-03-06T23:34:07.056Z,98857.96
2019-03-06T23:36:40.587Z,98869.17
2019-03-06T23:39:14.125Z,98854.95
2019-03-06T23:41:47.538Z,98852.27
2019-03-06T23:44:21.331Z,98851.80
2019-03-06T23:46:54.778Z,98844.23
2019-03-06T23:49:28.187Z,98839.06
2019-03-06T23:52:03.158Z,98843.23
2019-03-06T23:54:36.863Z,98833.55
2019-03-06T23:57:10.257Z,98831.95
2019-03-06T23:59:43.673Z,98826.28
